sensor_id;sensor_type;location;lat;lon;timestamp;P1;durP1;ratioP1;P2;durP2;ratioP2
33714;SDS011;20043;50.998;4.754;2024-01-10T00:01:36;16.48;;;7.00;;
33714;SDS011;20043;50.998;4.754;2024-01-10T00:04:01;15.55;;;7.35;;
33714;SDS011;20043;50.998;4.754;2024-01-10T00:06:27;14.60;;;7.20;;
33714;SDS011;20043;50.998;4.754;2024-01-10T00:08:53;14.90;;;7.32;;
33714;SDS011;20043;50.998;4.754;2024-01-10T00:11:19;13.50;;;7.38;;
33714;SDS011;20043;50.998;4.754;2024-01-10T00:13:44;12.50;;;6.68;;
33714;SDS011;20043;50.998;4.754;2024-01-10T00:16:13;15.38;;;7.05;;
33714;SDS011;20043;50.998;4.754;2024-01-10T00:18:39;16.60;;;6.68;;
33714;SDS011;20043;50.998;4.754;2024-01-10T00:21:07;17.15;;;7.05;;
33714;SDS011;20043;50.998;4.754;2024-01-10T00:23:33;14.52;;;6.85;;
33714;SDS011;20043;50.998;4.754;2024-01-10T00:25:59;14.80;;;7.18;;
33714;SDS011;20043;50.998;4.754;2024-01-10T00:28:25;17.67;;;7.13;;
33714;SDS011;20043;50.998;4.754;2024-01-10T00:30:50;13.98;;;6.75;;
33714;SDS011;20043;50.998;4.754;2024-01-10T00:33:16;14.32;;;7.10;;
33714;SDS011;20043;50.998;4.754;2024-01-10T00:35:42;14.98;;;6.68;;
33714;SDS011;20043;50.998;4.754;2024-01-10T00:38:08;16.35;;;6.95;;
33714;SDS011;20043;50.998;4.754;2024-01-10T00:40:34;17.88;;;7.53;;
33714;SDS011;20043;50.998;4.754;2024-01-10T00:43:00;14.82;;;7.25;;
33714;SDS011;20043;50.998;4.754;2024-01-10T00:45:26;16.17;;;7.28;;
33714;SDS011;20043;50.998;4.754;2024-01-10T00:47:52;14.27;;;7.55;;
33714;SDS011;20043;50.998;4.754;2024-01-10T00:50:18;15.30;;;7.15;;
33714;SDS011;20043;50.998;4.754;2024-01-10T00:52:44;13.77;;;7.25;;
33714;SDS011;20043;50.998;4.754;2024-01-10T00:55:10;18.48;;;7.40;;
33714;SDS011;20043;50.998;4.754;2024-01-10T00:57:35;19.77;;;8.27;;
33714;SDS011;20043;50.998;4.754;2024-01-10T01:00:04;11.65;;;6.68;;
33714;SDS011;20043;50.998;4.754;2024-01-10T01:02:34;17.65;;;7.38;;
33714;SDS011;20043;50.998;4.754;2024-01-10T01:05:00;22.13;;;8.52;;
33714;SDS011;20043;50.998;4.754;2024-01-10T01:07:26;12.27;;;6.57;;
33714;SDS011;20043;50.998;4.754;2024-01-10T01:09:51;17.00;;;7.57;;
33714;SDS011;20043;50.998;4.754;2024-01-10T01:12:17;13.05;;;7.03;;
33714;SDS011;20043;50.998;4.754;2024-01-10T01:14:43;17.73;;;7.53;;
33714;SDS011;20043;50.998;4.754;2024-01-10T01:17:08;13.10;;;6.93;;
33714;SDS011;20043;50.998;4.754;2024-01-10T01:19:34;17.42;;;7.07;;
33714;SDS011;20043;50.998;4.754;2024-01-10T01:22:00;17.08;;;7.82;;
33714;SDS011;20043;50.998;4.754;2024-01-10T01:24:25;14.38;;;7.63;;
33714;SDS011;20043;50.998;4.754;2024-01-10T01:26:51;15.60;;;7.35;;
33714;SDS011;20043;50.998;4.754;2024-01-10T01:29:17;17.73;;;6.45;;
33714;SDS011;20043;50.998;4.754;2024-01-10T01:31:43;15.35;;;7.55;;
33714;SDS011;20043;50.998;4.754;2024-01-10T01:34:08;17.35;;;7.97;;
33714;SDS011;20043;50.998;4.754;2024-01-10T01:36:34;16.80;;;7.07;;
33714;SDS011;20043;50.998;4.754;2024-01-10T01:39:00;16.65;;;7.95;;
33714;SDS011;20043;50.998;4.754;2024-01-10T01:41:25;17.90;;;7.68;;
33714;SDS011;20043;50.998;4.754;2024-01-10T01:43:51;15.45;;;7.18;;
33714;SDS011;20043;50.998;4.754;2024-01-10T01:46:17;14.80;;;7.20;;
33714;SDS011;20043;50.998;4.754;2024-01-10T01:48:43;13.77;;;6.93;;
33714;SDS011;20043;50.998;4.754;2024-01-10T01:51:09;15.32;;;7.50;;
33714;SDS011;20043;50.998;4.754;2024-01-10T01:53:36;14.07;;;6.75;;
33714;SDS011;20043;50.998;4.754;2024-01-10T01:56:02;19.55;;;7.38;;
33714;SDS011;20043;50.998;4.754;2024-01-10T01:58:32;14.98;;;6.90;;
33714;SDS011;20043;50.998;4.754;2024-01-10T02:01:01;16.27;;;7.18;;
33714;SDS011;20043;50.998;4.754;2024-01-10T02:03:29;15.80;;;7.60;;
33714;SDS011;20043;50.998;4.754;2024-01-10T02:05:56;17.70;;;7.63;;
33714;SDS011;20043;50.998;4.754;2024-01-10T02:08:22;19.05;;;7.32;;
33714;SDS011;20043;50.998;4.754;2024-01-10T02:10:48;13.23;;;7.00;;
33714;SDS011;20043;50.998;4.754;2024-01-10T02:13:14;15.55;;;7.60;;
33714;SDS011;20043;50.998;4.754;2024-01-10T02:15:40;16.88;;;7.80;;
33714;SDS011;20043;50.998;4.754;2024-01-10T02:18:06;14.43;;;7.18;;
33714;SDS011;20043;50.998;4.754;2024-01-10T02:20:32;14.57;;;7.13;;
33714;SDS011;20043;50.998;4.754;2024-01-10T02:22:58;20.02;;;7.63;;
33714;SDS011;20043;50.998;4.754;2024-01-10T02:25:23;13.50;;;6.70;;
33714;SDS011;20043;50.998;4.754;2024-01-10T02:27:49;15.13;;;7.90;;
33714;SDS011;20043;50.998;4.754;2024-01-10T02:30:15;17.25;;;7.22;;
33714;SDS011;20043;50.998;4.754;2024-01-10T02:32:41;18.05;;;7.82;;
33714;SDS011;20043;50.998;4.754;2024-01-10T02:35:06;15.63;;;8.32;;
33714;SDS011;20043;50.998;4.754;2024-01-10T02:37:33;15.98;;;7.88;;
33714;SDS011;20043;50.998;4.754;2024-01-10T02:39:59;16.33;;;7.90;;
33714;SDS011;20043;50.998;4.754;2024-01-10T02:42:25;16.48;;;8.35;;
33714;SDS011;20043;50.998;4.754;2024-01-10T02:44:52;20.40;;;9.38;;
33714;SDS011;20043;50.998;4.754;2024-01-10T02:47:18;18.80;;;8.98;;
33714;SDS011;20043;50.998;4.754;2024-01-10T02:49:44;17.45;;;8.63;;
33714;SDS011;20043;50.998;4.754;2024-01-10T02:52:09;15.07;;;7.78;;
33714;SDS011;20043;50.998;4.754;2024-01-10T02:54:35;15.00;;;8.77;;
33714;SDS011;20043;50.998;4.754;2024-01-10T02:57:01;17.50;;;8.15;;
33714;SDS011;20043;50.998;4.754;2024-01-10T02:59:26;15.45;;;8.65;;
33714;SDS011;20043;50.998;4.754;2024-01-10T03:01:52;19.55;;;8.38;;
33714;SDS011;20043;50.998;4.754;2024-01-10T03:04:17;16.90;;;9.05;;
33714;SDS011;20043;50.998;4.754;2024-01-10T03:06:43;17.60;;;8.38;;
33714;SDS011;20043;50.998;4.754;2024-01-10T03:09:09;17.13;;;7.97;;
33714;SDS011;20043;50.998;4.754;2024-01-10T03:11:34;20.27;;;9.48;;
33714;SDS011;20043;50.998;4.754;2024-01-10T03:14:02;22.90;;;9.10;;
33714;SDS011;20043;50.998;4.754;2024-01-10T03:16:37;17.23;;;8.20;;
33714;SDS011;20043;50.998;4.754;2024-01-10T03:19:03;19.85;;;8.68;;
33714;SDS011;20043;50.998;4.754;2024-01-10T03:21:29;19.20;;;8.55;;
33714;SDS011;20043;50.998;4.754;2024-01-10T03:23:55;23.73;;;8.40;;
33714;SDS011;20043;50.998;4.754;2024-01-10T03:26:21;19.27;;;9.05;;
33714;SDS011;20043;50.998;4.754;2024-01-10T03:28:47;15.85;;;8.68;;
33714;SDS011;20043;50.998;4.754;2024-01-10T03:31:13;16.08;;;7.80;;
33714;SDS011;20043;50.998;4.754;2024-01-10T03:33:39;15.93;;;8.23;;
33714;SDS011;20043;50.998;4.754;2024-01-10T03:36:06;18.48;;;8.90;;
33714;SDS011;20043;50.998;4.754;2024-01-10T03:38:32;18.67;;;8.75;;
33714;SDS011;20043;50.998;4.754;2024-01-10T03:40:57;16.38;;;8.30;;
33714;SDS011;20043;50.998;4.754;2024-01-10T03:43:23;16.42;;;8.10;;
33714;SDS011;20043;50.998;4.754;2024-01-10T03:45:49;14.48;;;8.07;;
33714;SDS011;20043;50.998;4.754;2024-01-10T03:48:14;16.38;;;8.40;;
33714;SDS011;20043;50.998;4.754;2024-01-10T03:50:40;18.55;;;7.50;;
33714;SDS011;20043;50.998;4.754;2024-01-10T03:53:05;15.18;;;7.95;;
33714;SDS011;20043;50.998;4.754;2024-01-10T03:55:31;15.88;;;8.57;;
33714;SDS011;20043;50.998;4.754;2024-01-10T03:57:57;20.63;;;8.20;;
33714;SDS011;20043;50.998;4.754;2024-01-10T04:00:22;17.80;;;9.05;;
33714;SDS011;20043;50.998;4.754;2024-01-10T04:02:50;15.75;;;8.75;;
33714;SDS011;20043;50.998;4.754;2024-01-10T04:05:15;16.55;;;8.52;;
33714;SDS011;20043;50.998;4.754;2024-01-10T04:07:41;18.90;;;8.57;;
33714;SDS011;20043;50.998;4.754;2024-01-10T04:10:10;16.17;;;8.23;;
33714;SDS011;20043;50.998;4.754;2024-01-10T04:12:38;21.30;;;9.40;;
33714;SDS011;20043;50.998;4.754;2024-01-10T04:15:08;21.08;;;8.25;;
33714;SDS011;20043;50.998;4.754;2024-01-10T04:17:34;20.00;;;8.38;;
33714;SDS011;20043;50.998;4.754;2024-01-10T04:20:00;17.60;;;8.32;;
33714;SDS011;20043;50.998;4.754;2024-01-10T04:22:26;16.70;;;8.05;;
33714;SDS011;20043;50.998;4.754;2024-01-10T04:24:52;16.95;;;7.75;;
33714;SDS011;20043;50.998;4.754;2024-01-10T04:27:17;18.30;;;8.50;;
33714;SDS011;20043;50.998;4.754;2024-01-10T04:29:43;17.30;;;7.63;;
33714;SDS011;20043;50.998;4.754;2024-01-10T04:32:09;16.10;;;8.02;;
33714;SDS011;20043;50.998;4.754;2024-01-10T04:34:35;15.13;;;7.78;;
33714;SDS011;20043;50.998;4.754;2024-01-10T04:37:01;17.83;;;7.57;;
33714;SDS011;20043;50.998;4.754;2024-01-10T04:39:27;18.20;;;8.13;;
33714;SDS011;20043;50.998;4.754;2024-01-10T04:41:52;17.27;;;7.88;;
33714;SDS011;20043;50.998;4.754;2024-01-10T04:44:18;18.00;;;7.68;;
33714;SDS011;20043;50.998;4.754;2024-01-10T04:46:44;15.15;;;7.68;;
33714;SDS011;20043;50.998;4.754;2024-01-10T04:49:09;17.15;;;7.68;;
33714;SDS011;20043;50.998;4.754;2024-01-10T04:51:35;14.35;;;7.25;;
33714;SDS011;20043;50.998;4.754;2024-01-10T04:54:01;16.08;;;7.50;;
33714;SDS011;20043;50.998;4.754;2024-01-10T04:56:26;15.40;;;7.88;;
33714;SDS011;20043;50.998;4.754;2024-01-10T04:58:52;13.90;;;6.80;;
33714;SDS011;20043;50.998;4.754;2024-01-10T05:01:18;17.33;;;7.45;;
33714;SDS011;20043;50.998;4.754;2024-01-10T05:03:43;20.02;;;8.32;;
33714;SDS011;20043;50.998;4.754;2024-01-10T05:06:09;14.55;;;7.18;;
33714;SDS011;20043;50.998;4.754;2024-01-10T05:08:35;16.92;;;8.05;;
33714;SDS011;20043;50.998;4.754;2024-01-10T05:11:01;13.73;;;6.57;;
33714;SDS011;20043;50.998;4.754;2024-01-10T05:13:27;17.52;;;7.25;;
33714;SDS011;20043;50.998;4.754;2024-01-10T05:15:52;16.80;;;7.28;;
33714;SDS011;20043;50.998;4.754;2024-01-10T05:18:20;20.30;;;7.25;;
33714;SDS011;20043;50.998;4.754;2024-01-10T05:20:46;15.35;;;7.63;;
33714;SDS011;20043;50.998;4.754;2024-01-10T05:23:12;15.20;;;7.00;;
33714;SDS011;20043;50.998;4.754;2024-01-10T05:25:38;18.70;;;7.53;;
33714;SDS011;20043;50.998;4.754;2024-01-10T05:28:04;15.80;;;7.03;;
33714;SDS011;20043;50.998;4.754;2024-01-10T05:30:30;15.98;;;7.95;;
33714;SDS011;20043;50.998;4.754;2024-01-10T05:32:56;16.10;;;7.22;;
33714;SDS011;20043;50.998;4.754;2024-01-10T05:35:23;13.77;;;7.47;;
33714;SDS011;20043;50.998;4.754;2024-01-10T05:37:50;14.45;;;7.28;;
33714;SDS011;20043;50.998;4.754;2024-01-10T05:40:16;15.32;;;7.95;;
33714;SDS011;20043;50.998;4.754;2024-01-10T05:42:43;15.10;;;7.57;;
33714;SDS011;20043;50.998;4.754;2024-01-10T05:45:09;21.33;;;8.80;;
33714;SDS011;20043;50.998;4.754;2024-01-10T05:47:35;20.38;;;9.13;;
33714;SDS011;20043;50.998;4.754;2024-01-10T05:50:00;20.77;;;8.82;;
33714;SDS011;20043;50.998;4.754;2024-01-10T05:52:27;21.40;;;9.45;;
33714;SDS011;20043;50.998;4.754;2024-01-10T05:54:52;22.13;;;9.55;;
33714;SDS011;20043;50.998;4.754;2024-01-10T05:57:18;20.80;;;9.27;;
33714;SDS011;20043;50.998;4.754;2024-01-10T05:59:46;20.38;;;9.20;;
33714;SDS011;20043;50.998;4.754;2024-01-10T06:02:11;17.63;;;8.63;;
33714;SDS011;20043;50.998;4.754;2024-01-10T06:04:37;23.08;;;8.88;;
33714;SDS011;20043;50.998;4.754;2024-01-10T06:07:03;18.40;;;8.00;;
33714;SDS011;20043;50.998;4.754;2024-01-10T06:09:29;16.33;;;8.10;;
33714;SDS011;20043;50.998;4.754;2024-01-10T06:11:54;14.55;;;7.43;;
33714;SDS011;20043;50.998;4.754;2024-01-10T06:14:20;17.27;;;8.18;;
33714;SDS011;20043;50.998;4.754;2024-01-10T06:16:45;14.52;;;7.25;;
33714;SDS011;20043;50.998;4.754;2024-01-10T06:19:11;15.15;;;7.05;;
33714;SDS011;20043;50.998;4.754;2024-01-10T06:21:37;15.30;;;7.30;;
33714;SDS011;20043;50.998;4.754;2024-01-10T06:24:03;17.52;;;7.05;;
33714;SDS011;20043;50.998;4.754;2024-01-10T06:26:29;16.33;;;6.93;;
33714;SDS011;20043;50.998;4.754;2024-01-10T06:28:54;14.95;;;7.25;;
33714;SDS011;20043;50.998;4.754;2024-01-10T06:31:20;15.00;;;7.03;;
33714;SDS011;20043;50.998;4.754;2024-01-10T06:33:46;14.15;;;7.28;;
33714;SDS011;20043;50.998;4.754;2024-01-10T06:36:12;14.98;;;7.05;;
33714;SDS011;20043;50.998;4.754;2024-01-10T06:38:38;14.95;;;7.50;;
33714;SDS011;20043;50.998;4.754;2024-01-10T06:41:12;15.35;;;7.15;;
33714;SDS011;20043;50.998;4.754;2024-01-10T06:43:39;16.90;;;8.00;;
33714;SDS011;20043;50.998;4.754;2024-01-10T06:46:05;18.33;;;7.25;;
33714;SDS011;20043;50.998;4.754;2024-01-10T06:48:31;14.68;;;7.00;;
33714;SDS011;20043;50.998;4.754;2024-01-10T06:50:58;14.52;;;7.13;;
33714;SDS011;20043;50.998;4.754;2024-01-10T06:53:24;18.20;;;7.70;;
33714;SDS011;20043;50.998;4.754;2024-01-10T06:55:49;14.27;;;7.05;;
33714;SDS011;20043;50.998;4.754;2024-01-10T06:58:15;18.05;;;7.57;;
33714;SDS011;20043;50.998;4.754;2024-01-10T07:00:41;16.95;;;7.85;;
33714;SDS011;20043;50.998;4.754;2024-01-10T07:03:07;12.98;;;7.03;;
33714;SDS011;20043;50.998;4.754;2024-01-10T07:05:32;18.42;;;7.85;;
33714;SDS011;20043;50.998;4.754;2024-01-10T07:07:58;15.90;;;7.55;;
33714;SDS011;20043;50.998;4.754;2024-01-10T07:10:27;16.23;;;7.57;;
33714;SDS011;20043;50.998;4.754;2024-01-10T07:12:56;14.90;;;7.47;;
33714;SDS011;20043;50.998;4.754;2024-01-10T07:15:22;16.65;;;7.28;;
33714;SDS011;20043;50.998;4.754;2024-01-10T07:17:48;13.65;;;7.53;;
33714;SDS011;20043;50.998;4.754;2024-01-10T07:20:13;19.17;;;8.18;;
33714;SDS011;20043;50.998;4.754;2024-01-10T07:22:39;15.13;;;8.25;;
33714;SDS011;20043;50.998;4.754;2024-01-10T07:25:09;20.05;;;8.85;;
33714;SDS011;20043;50.998;4.754;2024-01-10T07:27:39;17.30;;;8.20;;
33714;SDS011;20043;50.998;4.754;2024-01-10T07:30:08;16.50;;;7.20;;
33714;SDS011;20043;50.998;4.754;2024-01-10T07:32:47;16.83;;;7.38;;
33714;SDS011;20043;50.998;4.754;2024-01-10T07:35:13;16.27;;;7.50;;
33714;SDS011;20043;50.998;4.754;2024-01-10T07:37:45;14.35;;;6.95;;
33714;SDS011;20043;50.998;4.754;2024-01-10T07:40:11;14.20;;;6.95;;
33714;SDS011;20043;50.998;4.754;2024-01-10T07:42:38;15.30;;;7.78;;
33714;SDS011;20043;50.998;4.754;2024-01-10T07:45:04;16.05;;;7.55;;
33714;SDS011;20043;50.998;4.754;2024-01-10T07:47:31;16.50;;;7.82;;
33714;SDS011;20043;50.998;4.754;2024-01-10T07:49:57;15.82;;;7.38;;
33714;SDS011;20043;50.998;4.754;2024-01-10T07:52:23;16.73;;;7.50;;
33714;SDS011;20043;50.998;4.754;2024-01-10T07:54:48;16.67;;;8.02;;
33714;SDS011;20043;50.998;4.754;2024-01-10T07:57:14;15.50;;;7.22;;
33714;SDS011;20043;50.998;4.754;2024-01-10T07:59:43;16.50;;;7.32;;
33714;SDS011;20043;50.998;4.754;2024-01-10T08:02:09;17.67;;;7.55;;
33714;SDS011;20043;50.998;4.754;2024-01-10T08:04:35;15.75;;;7.75;;
33714;SDS011;20043;50.998;4.754;2024-01-10T08:07:01;17.75;;;8.00;;
33714;SDS011;20043;50.998;4.754;2024-01-10T08:09:26;17.42;;;7.93;;
33714;SDS011;20043;50.998;4.754;2024-01-10T08:11:52;16.33;;;8.23;;
33714;SDS011;20043;50.998;4.754;2024-01-10T08:14:18;18.83;;;8.43;;
33714;SDS011;20043;50.998;4.754;2024-01-10T08:16:43;16.45;;;8.18;;
33714;SDS011;20043;50.998;4.754;2024-01-10T08:19:09;19.42;;;8.95;;
33714;SDS011;20043;50.998;4.754;2024-01-10T08:21:36;19.55;;;8.18;;
33714;SDS011;20043;50.998;4.754;2024-01-10T08:24:02;18.33;;;9.07;;
33714;SDS011;20043;50.998;4.754;2024-01-10T08:26:28;17.98;;;9.43;;
33714;SDS011;20043;50.998;4.754;2024-01-10T08:28:55;18.13;;;8.48;;
33714;SDS011;20043;50.998;4.754;2024-01-10T08:31:21;17.83;;;8.75;;
33714;SDS011;20043;50.998;4.754;2024-01-10T08:33:47;18.90;;;9.32;;
33714;SDS011;20043;50.998;4.754;2024-01-10T08:36:13;20.67;;;9.90;;
33714;SDS011;20043;50.998;4.754;2024-01-10T08:38:42;20.80;;;9.45;;
33714;SDS011;20043;50.998;4.754;2024-01-10T08:41:07;21.05;;;9.63;;
33714;SDS011;20043;50.998;4.754;2024-01-10T08:43:37;20.65;;;10.40;;
33714;SDS011;20043;50.998;4.754;2024-01-10T08:46:03;17.50;;;9.38;;
33714;SDS011;20043;50.998;4.754;2024-01-10T08:48:29;22.88;;;9.85;;
33714;SDS011;20043;50.998;4.754;2024-01-10T08:50:54;22.75;;;9.20;;
33714;SDS011;20043;50.998;4.754;2024-01-10T08:53:21;25.85;;;11.55;;
33714;SDS011;20043;50.998;4.754;2024-01-10T08:55:47;21.65;;;8.93;;
33714;SDS011;20043;50.998;4.754;2024-01-10T08:58:13;19.08;;;9.82;;
33714;SDS011;20043;50.998;4.754;2024-01-10T09:00:39;27.52;;;14.25;;
33714;SDS011;20043;50.998;4.754;2024-01-10T09:03:04;24.63;;;12.52;;
33714;SDS011;20043;50.998;4.754;2024-01-10T09:05:30;20.90;;;10.13;;
33714;SDS011;20043;50.998;4.754;2024-01-10T09:07:56;20.98;;;10.00;;
33714;SDS011;20043;50.998;4.754;2024-01-10T09:10:22;21.85;;;9.85;;
33714;SDS011;20043;50.998;4.754;2024-01-10T09:12:48;18.98;;;9.38;;
33714;SDS011;20043;50.998;4.754;2024-01-10T09:15:14;20.63;;;11.10;;
33714;SDS011;20043;50.998;4.754;2024-01-10T09:17:40;26.10;;;10.70;;
33714;SDS011;20043;50.998;4.754;2024-01-10T09:20:07;20.35;;;9.77;;
33714;SDS011;20043;50.998;4.754;2024-01-10T09:22:33;20.00;;;10.43;;
33714;SDS011;20043;50.998;4.754;2024-01-10T09:24:59;21.67;;;10.95;;
33714;SDS011;20043;50.998;4.754;2024-01-10T09:27:29;22.20;;;10.75;;
33714;SDS011;20043;50.998;4.754;2024-01-10T09:30:04;19.75;;;10.43;;
33714;SDS011;20043;50.998;4.754;2024-01-10T09:32:33;22.35;;;11.18;;
33714;SDS011;20043;50.998;4.754;2024-01-10T09:35:00;25.30;;;12.27;;
33714;SDS011;20043;50.998;4.754;2024-01-10T09:37:26;22.98;;;11.88;;
33714;SDS011;20043;50.998;4.754;2024-01-10T09:39:51;22.70;;;10.50;;
33714;SDS011;20043;50.998;4.754;2024-01-10T09:42:18;22.02;;;9.80;;
33714;SDS011;20043;50.998;4.754;2024-01-10T09:44:45;24.98;;;10.88;;
33714;SDS011;20043;50.998;4.754;2024-01-10T09:47:12;24.25;;;11.50;;
33714;SDS011;20043;50.998;4.754;2024-01-10T09:49:40;21.67;;;10.75;;
33714;SDS011;20043;50.998;4.754;2024-01-10T09:52:06;24.48;;;10.88;;
33714;SDS011;20043;50.998;4.754;2024-01-10T09:54:36;21.58;;;10.20;;
33714;SDS011;20043;50.998;4.754;2024-01-10T09:57:05;22.17;;;10.60;;
33714;SDS011;20043;50.998;4.754;2024-01-10T09:59:31;21.70;;;9.82;;
33714;SDS011;20043;50.998;4.754;2024-01-10T10:01:56;20.17;;;9.60;;
33714;SDS011;20043;50.998;4.754;2024-01-10T10:04:25;19.48;;;9.80;;
33714;SDS011;20043;50.998;4.754;2024-01-10T10:06:59;29.33;;;14.30;;
33714;SDS011;20043;50.998;4.754;2024-01-10T10:09:28;25.23;;;11.23;;
33714;SDS011;20043;50.998;4.754;2024-01-10T10:11:55;20.08;;;11.52;;
33714;SDS011;20043;50.998;4.754;2024-01-10T10:14:22;20.30;;;10.48;;
33714;SDS011;20043;50.998;4.754;2024-01-10T10:16:51;20.80;;;10.45;;
33714;SDS011;20043;50.998;4.754;2024-01-10T10:19:23;22.25;;;10.38;;
33714;SDS011;20043;50.998;4.754;2024-01-10T10:21:50;22.95;;;10.50;;
33714;SDS011;20043;50.998;4.754;2024-01-10T10:24:16;28.67;;;10.75;;
33714;SDS011;20043;50.998;4.754;2024-01-10T10:26:42;26.88;;;11.50;;
33714;SDS011;20043;50.998;4.754;2024-01-10T10:29:08;26.13;;;11.75;;
33714;SDS011;20043;50.998;4.754;2024-01-10T10:31:34;21.88;;;10.40;;
33714;SDS011;20043;50.998;4.754;2024-01-10T10:34:00;27.58;;;10.73;;
33714;SDS011;20043;50.998;4.754;2024-01-10T10:36:27;21.00;;;9.82;;
33714;SDS011;20043;50.998;4.754;2024-01-10T10:38:54;20.48;;;11.00;;
33714;SDS011;20043;50.998;4.754;2024-01-10T10:41:20;20.83;;;10.60;;
33714;SDS011;20043;50.998;4.754;2024-01-10T10:43:46;22.27;;;11.05;;
33714;SDS011;20043;50.998;4.754;2024-01-10T10:46:15;20.27;;;11.02;;
33714;SDS011;20043;50.998;4.754;2024-01-10T10:48:41;26.02;;;11.07;;
33714;SDS011;20043;50.998;4.754;2024-01-10T10:51:40;23.27;;;10.80;;
33714;SDS011;20043;50.998;4.754;2024-01-10T10:54:01;23.08;;;10.60;;
33714;SDS011;20043;50.998;4.754;2024-01-10T10:56:29;24.83;;;11.25;;
33714;SDS011;20043;50.998;4.754;2024-01-10T10:58:56;19.63;;;10.50;;
33714;SDS011;20043;50.998;4.754;2024-01-10T11:01:24;28.38;;;11.93;;
33714;SDS011;20043;50.998;4.754;2024-01-10T11:03:52;24.70;;;12.60;;
33714;SDS011;20043;50.998;4.754;2024-01-10T11:06:18;27.20;;;12.65;;
33714;SDS011;20043;50.998;4.754;2024-01-10T11:08:53;21.90;;;10.98;;
33714;SDS011;20043;50.998;4.754;2024-01-10T11:25:35;25.10;;;11.45;;
33714;SDS011;20043;50.998;4.754;2024-01-10T11:28:04;20.02;;;11.15;;
33714;SDS011;20043;50.998;4.754;2024-01-10T11:30:36;27.10;;;12.88;;
33714;SDS011;20043;50.998;4.754;2024-01-10T11:33:23;27.88;;;11.13;;
33714;SDS011;20043;50.998;4.754;2024-01-10T11:38:40;27.63;;;12.40;;
33714;SDS011;20043;50.998;4.754;2024-01-10T11:41:38;21.58;;;10.95;;
33714;SDS011;20043;50.998;4.754;2024-01-10T11:46:43;24.98;;;13.02;;
33714;SDS011;20043;50.998;4.754;2024-01-10T11:49:12;27.70;;;11.82;;
33714;SDS011;20043;50.998;4.754;2024-01-10T11:51:42;23.10;;;11.45;;
33714;SDS011;20043;50.998;4.754;2024-01-10T11:54:34;27.05;;;11.20;;
33714;SDS011;20043;50.998;4.754;2024-01-10T11:57:08;23.33;;;11.15;;
33714;SDS011;20043;50.998;4.754;2024-01-10T11:59:46;21.50;;;11.50;;
33714;SDS011;20043;50.998;4.754;2024-01-10T12:02:15;21.65;;;12.13;;
33714;SDS011;20043;50.998;4.754;2024-01-10T12:04:42;22.27;;;11.93;;
33714;SDS011;20043;50.998;4.754;2024-01-10T12:07:08;27.45;;;12.65;;
33714;SDS011;20043;50.998;4.754;2024-01-10T12:09:34;22.13;;;10.77;;
33714;SDS011;20043;50.998;4.754;2024-01-10T12:12:01;20.55;;;10.93;;
33714;SDS011;20043;50.998;4.754;2024-01-10T12:14:27;26.17;;;12.95;;
33714;SDS011;20043;50.998;4.754;2024-01-10T12:16:54;27.77;;;12.40;;
33714;SDS011;20043;50.998;4.754;2024-01-10T12:19:19;21.67;;;11.73;;
33714;SDS011;20043;50.998;4.754;2024-01-10T12:21:45;23.55;;;10.57;;
33714;SDS011;20043;50.998;4.754;2024-01-10T12:24:11;19.40;;;10.73;;
33714;SDS011;20043;50.998;4.754;2024-01-10T12:26:42;24.15;;;11.88;;
33714;SDS011;20043;50.998;4.754;2024-01-10T12:29:11;23.75;;;11.77;;
33714;SDS011;20043;50.998;4.754;2024-01-10T12:31:44;22.30;;;12.30;;
33714;SDS011;20043;50.998;4.754;2024-01-10T12:34:10;21.77;;;11.00;;
33714;SDS011;20043;50.998;4.754;2024-01-10T12:36:36;21.92;;;11.85;;
33714;SDS011;20043;50.998;4.754;2024-01-10T12:39:02;27.30;;;11.40;;
33714;SDS011;20043;50.998;4.754;2024-01-10T12:41:29;24.63;;;11.15;;
33714;SDS011;20043;50.998;4.754;2024-01-10T12:43:55;23.67;;;11.95;;
33714;SDS011;20043;50.998;4.754;2024-01-10T12:46:21;23.17;;;11.73;;
33714;SDS011;20043;50.998;4.754;2024-01-10T12:48:57;23.65;;;11.70;;
33714;SDS011;20043;50.998;4.754;2024-01-10T12:51:26;23.25;;;12.27;;
33714;SDS011;20043;50.998;4.754;2024-01-10T12:53:52;20.63;;;11.35;;
33714;SDS011;20043;50.998;4.754;2024-01-10T12:56:18;25.70;;;11.45;;
33714;SDS011;20043;50.998;4.754;2024-01-10T12:58:44;23.83;;;11.85;;
33714;SDS011;20043;50.998;4.754;2024-01-10T13:01:10;24.65;;;11.05;;
33714;SDS011;20043;50.998;4.754;2024-01-10T13:03:37;20.38;;;11.55;;
33714;SDS011;20043;50.998;4.754;2024-01-10T13:06:03;24.77;;;11.52;;
33714;SDS011;20043;50.998;4.754;2024-01-10T13:08:30;27.00;;;13.82;;
33714;SDS011;20043;50.998;4.754;2024-01-10T13:10:56;30.40;;;15.07;;
33714;SDS011;20043;50.998;4.754;2024-01-10T13:13:22;27.42;;;12.25;;
33714;SDS011;20043;50.998;4.754;2024-01-10T13:15:48;24.88;;;12.82;;
33714;SDS011;20043;50.998;4.754;2024-01-10T13:18:15;26.55;;;12.52;;
33714;SDS011;20043;50.998;4.754;2024-01-10T13:20:41;27.45;;;12.13;;
33714;SDS011;20043;50.998;4.754;2024-01-10T13:23:08;24.60;;;12.38;;
33714;SDS011;20043;50.998;4.754;2024-01-10T13:25:41;23.83;;;12.30;;
33714;SDS011;20043;50.998;4.754;2024-01-10T13:28:07;23.45;;;11.90;;
33714;SDS011;20043;50.998;4.754;2024-01-10T13:30:47;22.38;;;12.07;;
33714;SDS011;20043;50.998;4.754;2024-01-10T13:33:12;48.60;;;19.48;;
33714;SDS011;20043;50.998;4.754;2024-01-10T13:35:38;47.40;;;20.98;;
33714;SDS011;20043;50.998;4.754;2024-01-10T13:38:04;28.20;;;12.98;;
33714;SDS011;20043;50.998;4.754;2024-01-10T13:40:31;23.88;;;12.60;;
33714;SDS011;20043;50.998;4.754;2024-01-10T13:42:59;23.52;;;12.98;;
33714;SDS011;20043;50.998;4.754;2024-01-10T13:45:27;24.85;;;12.68;;
33714;SDS011;20043;50.998;4.754;2024-01-10T13:47:53;25.60;;;12.82;;
33714;SDS011;20043;50.998;4.754;2024-01-10T13:50:18;26.30;;;14.60;;
33714;SDS011;20043;50.998;4.754;2024-01-10T13:52:44;30.17;;;13.40;;
33714;SDS011;20043;50.998;4.754;2024-01-10T13:55:10;25.33;;;13.25;;
33714;SDS011;20043;50.998;4.754;2024-01-10T13:57:35;23.55;;;11.63;;
33714;SDS011;20043;50.998;4.754;2024-01-10T14:00:01;26.73;;;13.25;;
33714;SDS011;20043;50.998;4.754;2024-01-10T14:02:32;26.92;;;14.05;;
33714;SDS011;20043;50.998;4.754;2024-01-10T14:04:58;29.73;;;12.63;;
33714;SDS011;20043;50.998;4.754;2024-01-10T14:07:23;25.77;;;12.98;;
33714;SDS011;20043;50.998;4.754;2024-01-10T14:09:49;28.20;;;12.77;;
33714;SDS011;20043;50.998;4.754;2024-01-10T14:12:15;25.10;;;12.45;;
33714;SDS011;20043;50.998;4.754;2024-01-10T14:14:41;25.55;;;13.38;;
33714;SDS011;20043;50.998;4.754;2024-01-10T14:17:07;22.30;;;12.40;;
33714;SDS011;20043;50.998;4.754;2024-01-10T14:19:34;23.23;;;13.15;;
33714;SDS011;20043;50.998;4.754;2024-01-10T14:21:59;24.08;;;12.85;;
33714;SDS011;20043;50.998;4.754;2024-01-10T14:24:25;31.23;;;12.73;;
33714;SDS011;20043;50.998;4.754;2024-01-10T14:26:50;27.52;;;12.77;;
33714;SDS011;20043;50.998;4.754;2024-01-10T14:29:16;26.65;;;13.32;;
33714;SDS011;20043;50.998;4.754;2024-01-10T14:31:42;24.70;;;12.55;;
33714;SDS011;20043;50.998;4.754;2024-01-10T14:34:07;30.17;;;12.02;;
33714;SDS011;20043;50.998;4.754;2024-01-10T14:36:34;20.90;;;12.10;;
33714;SDS011;20043;50.998;4.754;2024-01-10T14:39:02;24.65;;;12.75;;
33714;SDS011;20043;50.998;4.754;2024-01-10T14:41:29;20.48;;;11.43;;
33714;SDS011;20043;50.998;4.754;2024-01-10T14:43:54;23.92;;;12.68;;
33714;SDS011;20043;50.998;4.754;2024-01-10T14:46:21;21.30;;;12.38;;
33714;SDS011;20043;50.998;4.754;2024-01-10T14:48:47;23.00;;;12.13;;